Time;durP1;ratioP1;P1;durP2;ratioP2;P2;SDS_P1;SDS_P2;PMS_P1;PMS_P2;Temp;Humidity;BMP_temperature;BMP_pressure;BME280_temperature;BME280_humidity;BME280_pressure;Samples;Min_cycle;Max_cycle;Signal;HPM_P1;HPM_P2
2022/07/12 00:01:14;;;;;;;2.75;1.22;;;;;;;12.98;83.81;96909.41;1701628;84;21414;-83
2022/07/12 00:03:40;;;;;;;2.10;1.20;;;;;;;13.03;84.12;96916.22;1676335;84;20983;-83
2022/07/12 00:06:06;;;;;;;3.08;1.45;;;;;;;13.09;84.13;96916.77;1667652;83;20993;-81
2022/07/12 00:08:31;;;;;;;2.12;1.15;;;;;;;13.12;84.29;96911.98;1692516;83;21002;-81
2022/07/12 00:10:58;;;;;;;3.27;1.92;;;;;;;13.12;84.11;96909.88;1665761;84;20958;-82
2022/07/12 00:13:24;;;;;;;3.05;1.50;;;;;;;13.14;84.57;96911.80;1694265;83;21031;-81
2022/07/12 00:15:49;;;;;;;2.83;1.10;;;;;;;13.16;84.65;96914.53;1690259;83;20995;-82
2022/07/12 00:18:15;;;;;;;3.10;1.40;;;;;;;13.16;84.76;96913.23;1679635;84;21182;-83
2022/07/12 00:20:41;;;;;;;3.25;1.42;;;;;;;13.17;84.28;96919.25;1669424;83;20996;-83
2022/07/12 00:23:07;;;;;;;3.45;1.70;;;;;;;13.20;84.20;96917.63;1690513;83;21227;-82
2022/07/12 00:25:32;;;;;;;3.83;1.90;;;;;;;13.24;83.92;96921.48;1686004;83;21082;-82
2022/07/12 00:27:59;;;;;;;3.65;1.98;;;;;;;13.29;83.53;96918.31;1685986;83;21072;-82
2022/07/12 00:30:24;;;;;;;5.35;1.92;;;;;;;13.30;83.27;96914.20;1673552;83;21023;-82
2022/07/12 00:32:50;;;;;;;4.15;2.15;;;;;;;13.27;82.99;96907.25;1687863;83;20924;-83
2022/07/12 00:35:17;;;;;;;3.42;1.60;;;;;;;13.28;83.04;96910.98;1703777;82;21668;-83
2022/07/12 00:37:43;;;;;;;4.70;1.62;;;;;;;13.31;83.08;96907.19;1669501;83;21035;-82
2022/07/12 00:40:10;;;;;;;4.62;1.85;;;;;;;13.34;82.95;96912.86;1688851;83;21040;-83
2022/07/12 00:42:38;;;;;;;3.05;1.70;;;;;;;13.36;83.18;96917.89;1679240;84;20988;-81
2022/07/12 00:45:05;;;;;;;1.98;1.42;;;;;;;13.38;83.09;96916.71;1685997;83;21000;-82
2022/07/12 00:47:37;;;;;;;3.08;1.60;;;;;;;13.38;82.72;96914.60;1616264;87;20995;-82
2022/07/12 00:50:07;;;;;;;;;;;;;;;13.34;82.41;96915.94;1651096;85;21448;-81
2022/07/12 00:52:34;;;;;;;8.30;3.20;;;;;;;13.33;82.49;96916.94;1652096;87;20119;-81
2022/07/12 00:55:00;;;;;;;4.37;1.92;;;;;;;13.26;82.42;96915.58;1651795;85;21042;-81
2022/07/12 00:57:25;;;;;;;2.80;1.50;;;;;;;13.23;82.45;96918.56;1652054;87;21029;-83
2022/07/12 00:59:52;;;;;;;3.67;1.42;;;;;;;13.23;82.47;96921.17;1652195;85;21059;-83
2022/07/12 01:02:18;;;;;;;2.40;1.45;;;;;;;13.24;82.16;96925.89;1648567;85;21368;-83
2022/07/12 01:04:44;;;;;;;3.80;1.40;;;;;;;13.25;82.19;96920.98;1646825;85;20989;-83
2022/07/12 01:07:09;;;;;;;4.42;1.50;;;;;;;13.28;82.31;96925.33;1638936;85;21018;-83
2022/07/12 01:09:35;;;;;;;5.70;1.67;;;;;;;13.28;81.81;96924.52;1640530;85;21401;-83
2022/07/12 01:12:01;;;;;;;3.87;1.70;;;;;;;13.25;81.97;96919.69;1645230;85;20963;-83
2022/07/12 01:14:27;;;;;;;5.03;1.80;;;;;;;13.25;82.04;96923.09;1652159;87;21018;-83
2022/07/12 01:16:53;;;;;;;4.12;1.45;;;;;;;13.28;82.06;96925.33;1652114;85;21006;-82
2022/07/12 01:19:20;;;;;;;3.45;1.50;;;;;;;13.33;82.03;96928.68;1701601;83;21046;-81
2022/07/12 01:21:47;;;;;;;4.45;1.50;;;;;;;13.37;82.10;96928.65;1702387;82;21063;-83
2022/07/12 01:24:12;;;;;;;3.10;1.40;;;;;;;13.37;81.78;96922.92;1715656;82;21054;-82
2022/07/12 01:26:38;;;;;;;4.22;1.37;;;;;;;13.39;81.79;96925.35;1715835;82;21419;-83
2022/07/12 01:29:06;;;;;;;7.42;2.10;;;;;;;13.39;82.12;96924.05;1697334;82;20990;-81
2022/07/12 01:31:33;;;;;;;3.40;1.20;;;;;;;13.38;82.21;96924.55;1691691;82;20974;-81
2022/07/12 01:33:59;;;;;;;4.87;1.42;;;;;;;13.40;82.07;96916.52;1681421;84;20990;-81
2022/07/12 01:36:24;;;;;;;5.97;1.17;;;;;;;13.41;82.30;96914.22;1687085;82;20970;-83
2022/07/12 01:38:50;;;;;;;2.00;1.32;;;;;;;13.43;82.41;96919.56;1702582;84;20966;-82
2022/07/12 01:41:16;;;;;;;4.12;1.15;;;;;;;13.44;82.64;96915.95;1715684;82;21380;-82
2022/07/12 01:43:42;;;;;;;2.15;1.60;;;;;;;13.46;82.65;96928.32;1715868;83;21117;-83
2022/07/12 01:46:08;;;;;;;3.27;1.45;;;;;;;13.44;82.30;96930.81;1695533;82;20977;-83
2022/07/12 01:48:34;;;;;;;2.75;0.98;;;;;;;13.44;82.87;96925.09;1715626;82;21353;-82
2022/07/12 01:50:59;;;;;;;2.45;0.90;;;;;;;13.45;82.82;96922.79;1715723;84;20987;-83
2022/07/12 01:53:25;;;;;;;2.98;1.07;;;;;;;13.45;82.70;96921.48;1715391;82;21018;-82
2022/07/12 01:55:51;;;;;;;3.17;1.10;;;;;;;13.45;82.87;96914.96;1715676;82;21319;-83
2022/07/12 01:58:18;;;;;;;2.65;1.20;;;;;;;13.44;82.91;96911.23;1715510;82;20979;-81
2022/07/12 02:00:50;;;;;;;1.82;1.10;;;;;;;13.40;82.66;96910.80;1667188;84;21357;-81
2022/07/12 02:03:11;;;;;;;3.40;1.27;;;;;;;13.38;82.40;96908.08;1714847;82;21099;-81
2022/07/12 02:05:37;;;;;;;3.75;1.07;;;;;;;13.36;82.61;96907.45;1711078;82;21046;-83
2022/07/12 02:08:04;;;;;;;4.00;0.98;;;;;;;13.37;82.90;96905.16;1706734;82;20998;-83
2022/07/12 02:10:29;;;;;;;2.25;0.80;;;;;;;13.37;82.82;96907.27;1697778;82;21465;-82
2022/07/12 02:12:55;;;;;;;1.90;0.98;;;;;;;13.36;82.87;96905.66;1700831;84;21005;-83
2022/07/12 02:15:21;;;;;;;1.10;0.62;;;;;;;13.37;82.80;96910.38;1710308;82;21122;-83
2022/07/12 02:17:47;;;;;;;2.75;0.98;;;;;;;13.38;83.13;96914.60;1715730;82;20998;-83
2022/07/12 02:20:13;;;;;;;2.27;0.90;;;;;;;13.42;82.93;96919.75;1703918;83;20975;-83
2022/07/12 02:22:39;;;;;;;2.62;1.10;;;;;;;13.40;82.78;96912.11;1702558;83;21058;-83
2022/07/12 02:25:06;;;;;;;5.08;1.00;;;;;;;13.37;82.65;96912.98;1703502;84;21395;-81
2022/07/12 02:27:31;;;;;;;3.20;0.70;;;;;;;13.35;82.88;96912.37;1702971;83;20975;-81
2022/07/12 02:29:57;;;;;;;1.00;0.78;;;;;;;13.34;82.87;96908.95;1703725;84;21033;-82
2022/07/12 02:32:23;;;;;;;1.82;0.98;;;;;;;13.34;82.94;96907.64;1701041;84;21119;-82
2022/07/12 02:34:48;;;;;;;3.58;1.00;;;;;;;13.35;82.82;96907.95;1698965;83;21028;-81
2022/07/12 02:37:14;;;;;;;2.30;1.20;;;;;;;13.35;82.88;96908.45;1682824;83;21019;-81
2022/07/12 02:39:40;;;;;;;3.12;1.02;;;;;;;13.33;82.96;96903.89;1687271;84;21038;-81
2022/07/12 02:42:06;;;;;;;2.83;1.05;;;;;;;13.34;83.09;96907.64;1674987;83;21392;-83
2022/07/12 02:44:32;;;;;;;1.95;0.70;;;;;;;13.28;82.95;96899.23;1694936;83;21043;-83
2022/07/12 02:47:00;;;;;;;4.42;1.17;;;;;;;13.27;82.98;96897.63;1694036;83;20986;-84
2022/07/12 02:49:25;;;;;;;2.17;0.85;;;;;;;13.28;82.95;96902.34;1652819;84;21090;-81
2022/07/12 02:51:51;;;;;;;2.35;1.20;;;;;;;13.27;82.79;96901.53;1700622;83;21122;-83
2022/07/12 02:54:17;;;;;;;2.08;0.90;;;;;;;13.27;82.92;96904.14;1703306;84;21071;-83
2022/07/12 02:56:43;;;;;;;3.05;1.10;;;;;;;13.32;82.77;96914.02;1702841;83;21065;-83
2022/07/12 02:59:09;;;;;;;1.60;0.90;;;;;;;13.31;82.78;96914.52;1692521;83;21421;-83
2022/07/12 03:01:34;;;;;;;1.62;0.90;;;;;;;13.29;82.92;96914.39;1685729;84;21358;-83
2022/07/12 03:04:00;;;;;;;1.20;0.60;;;;;;;13.27;82.96;96909.86;1694980;84;20975;-81
2022/07/12 03:06:26;;;;;;;2.45;0.90;;;;;;;13.28;83.31;96912.28;1675200;84;21428;-81
2022/07/12 03:08:51;;;;;;;2.75;1.10;;;;;;;13.30;83.59;96910.79;1700204;83;21039;-81
2022/07/12 03:11:17;;;;;;;1.20;1.02;;;;;;;13.30;83.56;96917.31;1689798;83;21034;-81
2022/07/12 03:13:43;;;;;;;2.35;1.02;;;;;;;13.31;83.82;96916.32;1675955;84;21021;-81
2022/07/12 03:16:08;;;;;;;4.28;1.00;;;;;;;13.32;83.81;96913.52;1688531;83;20998;-82
2022/07/12 03:18:34;;;;;;;2.72;1.05;;;;;;;13.30;83.94;96916.01;1696630;84;21591;-84
2022/07/12 03:21:00;;;;;;;2.33;0.90;;;;;;;13.29;84.00;96918.31;1697636;83;21020;-83
2022/07/12 03:23:26;;;;;;;2.67;1.12;;;;;;;13.25;83.75;96918.38;1672236;84;21194;-82
2022/07/12 03:25:52;;;;;;;2.05;1.37;;;;;;;13.27;83.91;96917.69;1672139;83;21015;-81
2022/07/12 03:28:18;;;;;;;1.65;1.00;;;;;;;13.27;83.89;96920.30;1692036;83;20966;-82
2022/07/12 03:30:44;;;;;;;3.27;1.00;;;;;;;13.25;83.97;96919.69;1681347;83;21018;-81
2022/07/12 03:33:10;;;;;;;2.22;0.98;;;;;;;13.24;84.18;96920.67;1680076;84;20978;-82
2022/07/12 03:35:35;;;;;;;2.40;1.07;;;;;;;13.20;84.11;96923.66;1672370;83;20981;-82
2022/07/12 03:38:02;;;;;;;3.22;1.20;;;;;;;13.20;84.13;96916.33;1688825;83;20967;-83
2022/07/12 03:40:31;;;;;;;1.77;0.80;;;;;;;13.21;84.34;96913.53;1640127;86;21110;-83
2022/07/12 03:42:58;;;;;;;2.58;0.93;;;;;;;13.20;84.59;96907.20;1628242;85;21400;-83
2022/07/12 03:45:25;;;;;;;2.17;1.22;;;;;;;13.20;84.61;96912.42;1652704;85;20976;-83
2022/07/12 03:47:50;;;;;;;1.42;0.80;;;;;;;13.20;84.70;96910.61;1664602;85;21068;-81
2022/07/12 03:50:16;;;;;;;1.42;0.88;;;;;;;13.24;84.97;96911.55;1645558;85;21091;-83
2022/07/12 03:52:42;;;;;;;2.72;0.75;;;;;;;13.26;85.09;96910.86;1664703;85;20950;-83
2022/07/12 03:55:09;;;;;;;2.05;0.60;;;;;;;13.26;84.92;96919.49;1664291;85;21035;-82
2022/07/12 03:57:36;;;;;;;1.80;0.90;;;;;;;13.27;84.92;96924.22;1622721;87;21033;-82
2022/07/12 04:00:09;;;;;;;3.55;1.10;;;;;;;13.26;85.03;96918.69;1618284;87;21001;-82
2022/07/12 04:02:35;;;;;;;2.47;1.02;;;;;;;13.25;85.07;96925.70;1680549;83;21409;-82
2022/07/12 04:05:00;;;;;;;1.60;0.98;;;;;;;13.24;85.52;96925.89;1655161;86;20992;-82
2022/07/12 04:07:26;;;;;;;2.40;0.90;;;;;;;13.25;85.99;96924.90;1625963;85;21026;-82
2022/07/12 04:09:52;;;;;;;2.77;1.22;;;;;;;13.23;86.09;96925.09;1641614;87;20965;-82
2022/07/12 04:12:17;;;;;;;5.20;1.37;;;;;;;13.25;86.64;96923.59;1633682;87;22117;-82
2022/07/12 04:14:43;;;;;;;4.03;1.50;;;;;;;13.26;86.84;96922.60;1652560;87;21009;-82
2022/07/12 04:17:09;;;;;;;1.07;0.80;;;;;;;13.28;86.89;96917.50;1671459;85;21023;-82
2022/07/12 04:19:34;;;;;;;3.95;1.25;;;;;;;13.33;86.96;96915.63;1622472;86;21029;-82
2022/07/12 04:22:00;;;;;;;2.62;1.12;;;;;;;13.35;87.09;96914.48;1634719;86;21432;-83
2022/07/12 04:24:26;;;;;;;3.55;1.57;;;;;;;13.38;87.11;96912.80;1626698;86;21005;-82
2022/07/12 04:26:52;;;;;;;3.45;1.90;;;;;;;13.38;87.41;96912.80;1650625;85;20991;-82
2022/07/12 04:29:21;;;;;;;1.70;1.10;;;;;;;13.44;87.59;96916.45;1656115;86;21374;-82
2022/07/12 04:31:47;;;;;;;2.65;1.40;;;;;;;13.47;87.86;96916.08;1646761;85;21413;-81
2022/07/12 04:34:16;;;;;;;2.27;1.40;;;;;;;13.54;88.18;96913.05;1686355;84;21369;-82
2022/07/12 04:36:40;;;;;;;2.85;1.60;;;;;;;13.57;87.93;96915.77;1672607;83;21390;-81
2022/07/12 04:39:05;;;;;;;2.58;1.60;;;;;;;13.60;87.59;96927.14;1688514;83;20996;-81
2022/07/12 04:41:31;;;;;;;4.08;1.52;;;;;;;13.59;87.29;96925.03;1673839;83;20986;-83
2022/07/12 04:43:57;;;;;;;5.30;1.80;;;;;;;13.56;87.01;96920.19;1669937;84;21390;-82
2022/07/12 04:46:23;;;;;;;2.50;1.70;;;;;;;13.56;87.22;96920.69;1697209;83;20987;-82
2022/07/12 04:48:48;;;;;;;4.83;2.17;;;;;;;13.51;87.10;96928.59;1687720;84;21091;-82
2022/07/12 04:51:16;;;;;;;2.42;1.80;;;;;;;13.49;87.21;96931.05;1676770;83;21419;-82
2022/07/12 04:53:42;;;;;;;6.35;2.17;;;;;;;13.49;86.78;96933.16;1697096;83;21008;-82
2022/07/12 04:56:07;;;;;;;3.85;2.37;;;;;;;13.42;86.99;96931.00;1697737;83;21342;-83
2022/07/12 04:58:34;;;;;;;4.78;2.58;;;;;;;13.42;87.05;96932.80;1675217;83;21083;-82
2022/07/12 05:01:00;;;;;;;6.55;2.77;;;;;;;13.41;86.78;96931.19;1669582;83;21385;-82
2022/07/12 05:03:26;;;;;;;5.28;2.62;;;;;;;13.42;86.95;96925.78;1687779;83;21054;-82
2022/07/12 05:05:54;;;;;;;3.95;2.90;;;;;;;13.45;87.21;96925.90;1673716;84;21023;-83
2022/07/12 05:08:20;;;;;;;5.67;3.20;;;;;;;13.49;87.02;96921.91;1666494;83;20994;-83
2022/07/12 05:10:46;;;;;;;4.35;2.75;;;;;;;13.49;87.16;96930.55;1693087;83;21477;-82
2022/07/12 05:13:11;;;;;;;3.98;2.40;;;;;;;13.52;86.84;96925.48;1667531;83;20936;-83
2022/07/12 05:15:37;;;;;;;4.87;2.33;;;;;;;13.57;87.27;96927.53;1688586;83;20975;-82
2022/07/12 05:18:03;;;;;;;3.47;2.62;;;;;;;13.59;87.40;96928.14;1693504;83;21420;-83
2022/07/12 05:20:29;;;;;;;4.25;2.30;;;;;;;13.64;87.55;96931.80;1675423;83;21042;-83
2022/07/12 05:22:55;;;;;;;4.87;2.20;;;;;;;13.64;87.31;96925.27;1669685;83;20988;-83
2022/07/12 05:25:21;;;;;;;5.80;2.52;;;;;;;13.63;87.35;96930.69;1672185;83;20967;-82
2022/07/12 05:27:46;;;;;;;3.60;2.40;;;;;;;13.68;87.31;96925.23;1669562;84;21366;-82
2022/07/12 05:30:12;;;;;;;6.10;2.30;;;;;;;13.69;87.76;96932.56;1673279;83;21816;-82
2022/07/12 05:32:38;;;;;;;5.00;2.42;;;;;;;13.73;87.43;96933.30;1697780;84;21011;-84
2022/07/12 05:35:05;;;;;;;4.65;3.42;;;;;;;13.75;87.54;96938.33;1697826;84;20959;-83
2022/07/12 05:37:31;;;;;;;6.25;3.92;;;;;;;13.72;87.55;96934.80;1672877;83;20968;-82
2022/07/12 05:39:57;;;;;;;8.98;3.67;;;;;;;13.70;87.22;96938.09;1676491;83;21403;-82
2022/07/12 05:42:23;;;;;;;4.70;3.12;;;;;;;13.64;86.74;96931.80;1669588;83;21007;-82
2022/07/12 05:44:49;;;;;;;6.40;3.40;;;;;;;13.58;86.12;96932.56;1672210;83;21126;-82
2022/07/12 05:47:14;;;;;;;4.12;2.27;;;;;;;13.57;86.32;96937.47;1685390;84;21041;-83
2022/07/12 05:49:41;;;;;;;3.98;2.17;;;;;;;13.57;86.04;96937.47;1678359;83;21045;-82
2022/07/12 05:54:51;;;;;;;4.90;3.80;;;;;;;13.51;86.26;96942.14;1669727;83;20987;-83
2022/07/12 05:57:16;;;;;;;8.20;2.95;;;;;;;13.47;86.94;96938.27;1669712;83;21328;-83
2022/07/12 05:59:43;;;;;;;5.30;3.30;;;;;;;13.54;87.00;96936.55;1679656;84;20975;-83
2022/07/12 06:02:09;;;;;;;4.97;2.75;;;;;;;13.60;86.53;96936.28;1690487;83;21036;-83
2022/07/12 06:04:35;;;;;;;5.00;2.60;;;;;;;13.70;86.92;96936.80;1707119;83;21007;-82
2022/07/12 06:07:01;;;;;;;5.42;3.00;;;;;;;13.76;87.40;96926.39;1687738;84;21358;-83
2022/07/12 06:09:27;;;;;;;5.75;3.10;;;;;;;13.81;87.31;96931.84;1693410;83;21039;-82
2022/07/12 06:11:53;;;;;;;4.92;3.45;;;;;;;13.81;86.62;96931.04;1669574;83;20974;-83
2022/07/12 06:14:19;;;;;;;6.05;3.20;;;;;;;13.80;86.35;96922.40;1672197;83;20952;-82
2022/07/12 06:16:44;;;;;;;4.58;2.92;;;;;;;13.81;86.26;96924.02;1672132;83;21331;-82
2022/07/12 06:19:10;;;;;;;6.05;2.95;;;;;;;13.87;86.70;96922.97;1690342;83;21018;-81
2022/07/12 06:21:36;;;;;;;5.75;3.47;;;;;;;13.89;86.77;96918.36;1683300;83;21437;-81
2022/07/12 06:24:03;;;;;;;6.15;3.15;;;;;;;13.93;87.18;96915.67;1710057;83;20975;-81
2022/07/12 06:26:28;;;;;;;4.33;3.00;;;;;;;14.02;87.26;96914.55;1692150;82;20982;-81
2022/07/12 06:28:54;;;;;;;5.75;3.25;;;;;;;14.05;87.19;96914.16;1683544;83;20978;-81
2022/07/12 06:31:20;;;;;;;4.30;3.52;;;;;;;14.09;87.12;96912.78;1703386;83;20944;-81
2022/07/12 06:33:45;;;;;;;4.92;3.15;;;;;;;14.12;87.04;96913.70;1697652;83;21046;-81
2022/07/12 06:36:11;;;;;;;5.17;3.00;;;;;;;14.17;87.96;96910.03;1675012;84;21298;-83
2022/07/12 06:38:37;;;;;;;4.17;3.12;;;;;;;14.32;87.75;96917.77;1697542;83;20955;-83
2022/07/12 06:41:03;;;;;;;4.15;3.00;;;;;;;14.36;87.48;96918.49;1686760;83;20982;-83
2022/07/12 06:43:28;;;;;;;5.05;3.33;;;;;;;14.41;87.22;96919.22;1681050;83;21017;-83
2022/07/12 06:45:54;;;;;;;4.15;3.08;;;;;;;14.40;87.08;96908.45;1637701;87;20995;-83
2022/07/12 06:48:20;;;;;;;3.75;3.10;;;;;;;14.45;87.16;96915.73;1624645;86;21024;-83
2022/07/12 06:50:45;;;;;;;3.80;3.08;;;;;;;14.52;86.55;96914.80;1703206;84;21102;-81
2022/07/12 06:53:14;;;;;;;3.33;2.77;;;;;;;14.56;86.11;96914.70;1699468;83;21060;-82
2022/07/12 06:55:42;;;;;;;5.97;3.77;;;;;;;14.65;86.39;96910.13;1640600;86;21062;-81
2022/07/12 06:58:08;;;;;;;4.33;2.90;;;;;;;14.78;86.77;96912.78;1683249;83;21442;-81
2022/07/12 07:00:33;;;;;;;3.60;2.95;;;;;;;14.83;86.83;96916.95;1679189;84;20971;-83
2022/07/12 07:02:59;;;;;;;4.55;3.50;;;;;;;14.90;86.27;96916.97;1678709;84;20987;-83
2022/07/12 07:05:25;;;;;;;7.95;4.95;;;;;;;14.97;86.57;96923.05;1703156;83;21422;-83
2022/07/12 07:07:51;;;;;;;7.10;4.30;;;;;;;15.02;86.42;96925.88;1683503;83;20971;-83
2022/07/12 07:10:17;;;;;;;5.97;3.62;;;;;;;15.05;86.25;96925.98;1689706;84;21062;-83
2022/07/12 07:12:43;;;;;;;9.80;5.05;;;;;;;15.07;84.67;96928.70;1676777;83;21079;-83
2022/07/12 07:15:09;;;;;;;7.75;4.53;;;;;;;15.17;84.78;96927.84;1700989;84;21054;-82
2022/07/12 07:17:35;;;;;;;8.95;4.10;;;;;;;15.23;84.34;96931.47;1696745;83;20940;-83
2022/07/12 07:20:01;;;;;;;7.70;4.87;;;;;;;15.23;84.77;96928.34;1685003;83;21019;-82
2022/07/12 07:22:27;;;;;;;3.85;2.92;;;;;;;15.16;83.54;96936.70;1684619;84;22139;-83
2022/07/12 07:24:53;;;;;;;6.62;2.98;;;;;;;15.25;84.38;96932.88;1675086;83;20955;-83
2022/07/12 07:27:19;;;;;;;6.30;4.28;;;;;;;15.38;84.57;96929.50;1697427;83;20979;-83
2022/07/12 07:32:29;;;;;;;6.10;3.22;;;;;;;15.50;82.75;96927.11;1683415;83;21071;-82
2022/07/12 07:34:54;;;;;;;4.50;2.47;;;;;;;15.49;82.83;96922.88;1694685;83;21383;-81
2022/07/12 07:37:20;;;;;;;5.15;2.65;;;;;;;15.43;82.55;96927.58;1692134;83;21011;-81
2022/07/12 07:39:46;;;;;;;3.20;2.15;;;;;;;15.47;82.83;96934.86;1680215;83;20971;-81
2022/07/12 07:42:12;;;;;;;5.45;2.98;;;;;;;15.51;82.08;96935.27;1675081;83;21015;-83
2022/07/12 07:44:38;;;;;;;3.17;1.82;;;;;;;15.65;82.31;96933.52;1695019;83;21054;-83
2022/07/12 07:47:04;;;;;;;2.92;2.17;;;;;;;15.69;81.78;96934.21;1687967;84;21027;-83
2022/07/12 07:49:30;;;;;;;3.02;1.50;;;;;;;15.74;81.00;96940.95;1657156;83;21866;-81
2022/07/12 07:51:56;;;;;;;4.65;2.35;;;;;;;15.86;79.62;96939.36;1685928;83;20991;-81
2022/07/12 07:54:22;;;;;;;10.30;3.90;;;;;;;15.93;80.31;96947.22;1683913;84;20979;-83
2022/07/12 07:56:47;;;;;;;7.25;3.45;;;;;;;15.89;80.68;96943.39;1702977;83;21342;-83
2022/07/12 07:59:14;;;;;;;8.85;4.08;;;;;;;15.85;79.92;96953.98;1703405;84;20990;-82
2022/07/12 08:01:42;;;;;;;5.65;3.00;;;;;;;15.86;79.56;96953.77;1701532;83;21019;-82
2022/07/12 08:04:13;;;;;;;6.70;3.98;;;;;;;15.98;79.14;96950.56;1685770;84;20984;-81
2022/07/12 08:06:39;;;;;;;4.47;2.65;;;;;;;16.14;79.72;96945.72;1679810;84;21063;-83
2022/07/12 08:09:05;;;;;;;3.52;2.12;;;;;;;16.19;78.87;96951.66;1703228;83;20971;-83
2022/07/12 08:11:32;;;;;;;3.95;1.50;;;;;;;16.35;79.04;96945.99;1702824;83;21064;-82
2022/07/12 08:13:58;;;;;;;3.95;2.02;;;;;;;16.38;76.99;96944.77;1693701;83;21460;-83
2022/07/12 08:16:24;;;;;;;5.03;2.70;;;;;;;16.34;77.62;96948.82;1699137;84;20967;-83
2022/07/12 08:18:50;;;;;;;2.58;1.72;;;;;;;16.40;78.10;96945.37;1678282;83;20936;-82
2022/07/12 08:21:15;;;;;;;4.03;2.58;;;;;;;16.59;79.14;96949.77;1687913;83;21517;-83
2022/07/12 08:23:41;;;;;;;3.85;2.10;;;;;;;16.68;78.34;96946.46;1680482;83;20972;-82
2022/07/12 08:26:07;;;;;;;3.75;1.75;;;;;;;16.65;77.18;96936.35;1688197;83;21007;-82
2022/07/12 08:28:33;;;;;;;2.98;1.72;;;;;;;16.56;77.57;96941.51;1678826;83;21067;-83
2022/07/12 08:30:59;;;;;;;5.58;2.50;;;;;;;16.48;77.93;96937.30;1691175;84;21505;-83
2022/07/12 08:33:25;;;;;;;3.77;2.67;;;;;;;16.38;77.35;96936.40;1695374;83;21382;-83
2022/07/12 08:35:50;;;;;;;3.12;2.02;;;;;;;16.32;77.32;96946.41;1703229;83;21011;-84
2022/07/12 08:38:16;;;;;;;3.33;1.98;;;;;;;16.26;75.93;96951.64;1703266;83;20990;-82
2022/07/12 08:40:43;;;;;;;3.17;2.05;;;;;;;16.23;76.50;96950.23;1678637;83;21062;-82
2022/07/12 08:43:09;;;;;;;3.37;1.30;;;;;;;16.55;76.86;96947.77;1685988;83;21128;-81
2022/07/12 08:45:34;;;;;;;2.50;1.30;;;;;;;16.88;76.31;96935.39;1703240;83;21016;-83
2022/07/12 08:48:00;;;;;;;1.60;1.17;;;;;;;17.13;75.69;96934.70;1685008;84;21355;-83
2022/07/12 08:50:27;;;;;;;3.35;1.05;;;;;;;17.22;76.02;96931.59;1674987;83;21046;-82
2022/07/12 08:52:54;;;;;;;3.08;1.25;;;;;;;17.48;74.72;96926.72;1697346;83;21011;-83
2022/07/12 08:55:34;;;;;;;2.33;0.75;;;;;;;17.38;74.39;96932.93;1674951;83;21058;-83
2022/07/12 08:58:02;;;;;;;3.12;0.80;;;;;;;17.26;73.82;96937.26;1677725;83;20987;-83
2022/07/12 09:00:31;;;;;;;1.80;0.70;;;;;;;17.04;71.84;96938.86;1687231;83;20965;-83
2022/07/12 09:03:02;;;;;;;2.25;0.60;;;;;;;17.15;71.64;96938.72;1703144;83;20991;-83
2022/07/12 09:05:31;;;;;;;1.72;0.80;;;;;;;17.17;71.48;96944.56;1660342;84;21366;-83
2022/07/12 09:08:07;;;;;;;1.57;0.53;;;;;;;17.13;71.12;96942.57;1702880;83;21027;-83
2022/07/12 09:10:51;;;;;;;2.47;0.65;;;;;;;17.03;71.29;96949.56;1683727;83;21423;-81
2022/07/12 09:13:17;;;;;;;1.87;0.60;;;;;;;16.85;67.66;96949.44;1694492;83;21054;-82
2022/07/12 09:15:43;;;;;;;3.17;1.07;;;;;;;16.94;67.71;96955.58;1701380;84;21005;-82
2022/07/12 09:18:13;;;;;;;3.25;1.32;;;;;;;17.11;68.71;96951.97;1691763;84;21326;-81
2022/07/12 09:20:37;;;;;;;5.42;2.47;;;;;;;17.52;68.56;96946.80;1694583;83;21402;-81
2022/07/12 09:23:11;;;;;;;2.22;1.05;;;;;;;17.60;67.75;96943.94;1684799;84;21059;-81
2022/07/12 09:25:41;;;;;;;6.42;2.15;;;;;;;17.56;67.91;96948.78;1675389;84;20983;-81
2022/07/12 09:28:08;;;;;;;2.08;0.78;;;;;;;17.40;64.49;96965.05;1693164;84;21030;-80
2022/07/12 09:30:37;;;;;;;1.77;1.05;;;;;;;17.33;67.35;96958.52;1666736;83;21031;-80
2022/07/12 09:36:06;;;;;;;2.40;1.10;;;;;;;17.42;67.29;96964.86;1683715;83;20994;-81
2022/07/12 09:39:00;;;;;;;3.72;1.30;;;;;;;17.37;65.21;96968.90;1702754;83;20936;-80
2022/07/12 09:41:22;;;;;;;6.33;4.00;;;;;;;17.31;64.12;96967.63;1702568;84;21445;-82
2022/07/12 09:43:50;;;;;;;6.28;3.42;;;;;;;17.25;66.21;96964.55;1703396;83;21109;-82
2022/07/12 09:46:16;;;;;;;3.90;2.37;;;;;;;17.22;66.26;96956.55;1703006;84;21399;-81
2022/07/12 09:48:44;;;;;;;3.35;1.75;;;;;;;17.14;65.45;96968.62;1684090;84;21002;-82
2022/07/12 09:51:15;;;;;;;3.08;1.37;;;;;;;16.97;65.39;96962.22;1673339;83;21042;-83
2022/07/12 09:53:46;;;;;;;1.57;0.77;;;;;;;16.82;65.86;96971.66;1703404;84;21366;-82
2022/07/12 09:56:15;;;;;;;2.55;1.17;;;;;;;16.75;65.08;96975.59;1699550;83;21027;-81
2022/07/12 09:58:57;;;;;;;1.55;0.90;;;;;;;16.72;65.99;96977.32;1673894;84;21050;-82
2022/07/12 10:01:23;;;;;;;2.27;1.02;;;;;;;16.75;67.04;96977.41;1679533;83;20987;-83
2022/07/12 10:03:49;;;;;;;1.65;1.02;;;;;;;16.82;67.40;96970.34;1668099;85;20976;-82
2022/07/12 10:06:28;;;;;;;2.45;1.00;;;;;;;16.95;67.80;96967.69;1675374;83;21369;-82
2022/07/12 10:08:55;;;;;;;1.27;0.80;;;;;;;17.13;67.63;96974.08;1703052;83;21011;-83
2022/07/12 10:11:24;;;;;;;8.75;4.87;;;;;;;17.31;67.89;96965.00;1684389;83;21422;-83
2022/07/12 10:13:51;;;;;;;4.55;2.50;;;;;;;17.44;67.14;96970.70;1699929;83;21409;-82
2022/07/12 10:16:17;;;;;;;2.47;0.75;;;;;;;17.61;66.21;96959.99;1692643;84;21086;-81
2022/07/12 10:18:43;;;;;;;2.40;1.92;;;;;;;17.86;64.95;96957.41;1675092;83;21373;-81
2022/07/12 10:21:19;;;;;;;1.60;1.12;;;;;;;18.23;65.40;96950.47;1691932;83;21003;-81
2022/07/12 10:23:45;;;;;;;1.85;1.10;;;;;;;18.50;66.46;96939.16;1669310;83;21015;-81
2022/07/12 10:26:27;;;;;;;1.62;0.80;;;;;;;18.64;65.40;96945.94;1675047;83;20999;-82
2022/07/12 10:29:04;;;;;;;1.52;0.70;;;;;;;18.63;62.56;96938.23;1697643;83;20967;-82
2022/07/12 10:31:39;;;;;;;1.30;0.88;;;;;;;18.69;64.22;96938.69;1669479;84;20987;-83
2022/07/12 10:34:24;;;;;;;3.10;2.37;;;;;;;18.84;62.70;96939.13;1690926;83;20960;-83
2022/07/12 10:37:02;;;;;;;1.20;0.80;;;;;;;18.78;63.15;96942.66;1697375;83;21076;-83
2022/07/12 10:39:28;;;;;;;1.65;0.62;;;;;;;18.69;62.19;96940.81;1677924;83;20980;-82
2022/07/12 10:42:12;;;;;;;1.60;0.70;;;;;;;18.59;61.58;96934.72;1697555;84;21066;-81
2022/07/12 10:44:43;;;;;;;0.78;0.50;;;;;;;18.52;62.22;96941.86;1685417;83;21051;-83
2022/07/12 10:47:09;;;;;;;1.25;0.68;;;;;;;18.71;60.85;96931.38;1687248;84;20997;-83
2022/07/12 10:49:35;;;;;;;2.27;0.60;;;;;;;19.01;63.45;96932.24;1665595;83;20972;-83
2022/07/12 10:52:15;;;;;;;2.83;0.80;;;;;;;19.13;59.81;96925.72;1687518;84;21164;-82
2022/07/12 10:54:57;;;;;;;1.00;0.50;;;;;;;18.96;60.88;96934.73;1695133;84;21031;-82
2022/07/12 10:57:45;;;;;;;0.95;0.40;;;;;;;18.74;60.03;96940.17;1689416;84;21516;-83
2022/07/12 11:00:11;;;;;;;1.65;0.60;;;;;;;18.57;60.63;96932.83;1673075;83;21029;-83
2022/07/12 11:02:37;;;;;;;1.47;0.55;;;;;;;18.32;60.57;96933.88;1625417;87;20969;-82
2022/07/12 11:05:03;;;;;;;1.65;0.70;;;;;;;18.07;61.57;96954.44;1640472;86;20988;-83
2022/07/12 11:07:29;;;;;;;2.10;0.90;;;;;;;17.83;61.74;96994.14;1652200;85;21022;-83
2022/07/12 11:09:55;;;;;;;4.92;1.17;;;;;;;17.58;62.93;97020.86;1692480;83;21035;-83
2022/07/12 11:12:29;;;;;;;6.17;1.10;;;;;;;17.18;64.26;97040.70;1676432;84;21028;-82
2022/07/12 11:14:55;;;;;;;2.20;0.70;;;;;;;16.61;67.01;97058.47;1690474;83;21349;-81
2022/07/12 11:17:32;;;;;;;5.97;0.85;;;;;;;16.08;68.58;97075.47;1677687;83;20960;-81
2022/07/12 11:20:10;;;;;;;7.65;0.50;;;;;;;15.63;69.21;97007.06;1687193;83;20961;-81
2022/07/12 11:22:38;;;;;;;4.03;0.50;;;;;;;15.33;69.91;96999.98;1697088;83;21043;-81
2022/07/12 11:25:08;;;;;;;1.27;0.47;;;;;;;15.20;71.44;96989.45;1697391;83;21054;-81
2022/07/12 11:27:34;;;;;;;3.35;0.68;;;;;;;15.12;72.46;96982.56;1684990;83;21037;-81
2022/07/12 11:30:03;;;;;;;2.42;0.57;;;;;;;15.03;73.63;96975.91;1647645;87;21373;-81
2022/07/12 11:32:40;;;;;;;6.55;0.80;;;;;;;14.97;74.41;96968.34;1645101;86;21015;-81
2022/07/12 11:35:21;;;;;;;2.80;0.70;;;;;;;15.01;75.17;96970.87;1689051;84;21031;-82
2022/07/12 11:37:52;;;;;;;3.27;0.57;;;;;;;15.08;76.01;96970.88;1676579;83;21390;-82
2022/07/12 11:40:29;;;;;;;1.47;0.57;;;;;;;15.17;76.89;96965.80;1648451;87;21121;-84
2022/07/12 11:42:58;;;;;;;2.35;0.53;;;;;;;15.28;77.30;96967.83;1644574;86;20978;-82